| time (UTC) | temp C | wind direction | speed KPH | gust KPH | rain 1hr cm | rain 24hr cm | rain mn cm | humidity % | barometer mb |
| 20260507140534 | 17 | 263 | 1.6 | 11.3 | 0.36 | 5.99 | 3.71 | 96 | 1012.0 |
| 20260507140039 | 17 | 350 | 3.2 | 8.0 | 0.38 | 5.97 | 3.68 | 96 | 1012.0 |
| 20260507135528 | 17 | 334 | 1.6 | 6.4 | 0.38 | 5.94 | 3.66 | 96 | 1012.0 |
| 20260507135028 | 17 | 39 | 3.2 | 6.4 | 0.36 | 5.92 | 3.61 | 96 | 1012.0 |
| 20260507134550 | 17 | 321 | 1.6 | 8.0 | 0.36 | 5.89 | 3.58 | 96 | 1011.7 |
| 20260507134031 | 17 | 318 | 0.0 | 8.0 | 0.36 | 5.87 | 3.56 | 96 | 1012.0 |
| 20260507133533 | 17 | 317 | 1.6 | 8.0 | 0.36 | 5.84 | 3.53 | 96 | 1011.9 |
| 20260507133041 | 17 | 227 | 0.0 | 6.4 | 0.36 | 5.79 | 3.48 | 96 | 1012.1 |
| 20260507132530 | 17 | 227 | 1.6 | 6.4 | 0.36 | 5.77 | 3.45 | 96 | 1011.9 |
| 20260507132030 | 17 | 227 | 1.6 | 6.4 | 0.36 | 5.74 | 3.43 | 96 | 1011.9 |
| 20260507131543 | 17 | 229 | 3.2 | 6.4 | 0.36 | 5.71 | 3.40 | 96 | 1011.9 |
| 20260507131028 | 17 | 171 | 0.0 | 3.2 | 0.36 | 5.69 | 3.38 | 96 | 1011.1 |
| 20260507130534 | 17 | 0 | 0.0 | 3.2 | 0.36 | 5.64 | 3.33 | 96 | 1011.2 |
| 20260507130037 | 17 | 0 | 0.0 | 1.6 | 0.36 | 5.61 | 3.30 | 96 | 1010.7 |
| 20260507125531 | 17 | 0 | 0.0 | 4.8 | 0.36 | 5.59 | 3.28 | 96 | 1010.8 |
| 20260507125030 | 17 | 0 | 0.0 | 4.8 | 0.36 | 5.56 | 3.25 | 96 | 1011.1 |
| 20260507124542 | 17 | 101 | 3.2 | 4.8 | 0.36 | 5.54 | 3.23 | 96 | 1010.7 |
| 20260507124033 | 17 | 0 | 0.0 | 3.2 | 0.36 | 5.51 | 3.20 | 96 | 1011.2 |
| 20260507123528 | 17 | 103 | 0.0 | 3.2 | 0.33 | 5.46 | 3.15 | 96 | 1011.1 |
| 20260507123044 | 17 | 103 | 0.0 | 9.7 | 0.33 | 5.44 | 3.12 | 96 | 1011.0 |
| 20260507122530 | 17 | 103 | 0.0 | 9.7 | 0.33 | 5.41 | 3.10 | 96 | 1010.8 |
| 20260507122030 | 17 | 64 | 1.6 | 6.4 | 0.33 | 5.36 | 3.07 | 96 | 1010.6 |
| 20260507121540 | 17 | 0 | 1.6 | 8.0 | 0.33 | 5.33 | 3.05 | 96 | 1011.2 |
| 20260507121031 | 17 | 269 | 1.6 | 12.9 | 0.33 | 5.31 | 3.02 | 96 | 1012.0 |
| 20260507120532 | 17 | 311 | 4.8 | 12.9 | 0.30 | 5.28 | 2.95 | 96 | 1011.7 |
| 20260507120039 | 17 | 323 | 3.2 | 12.9 | 0.33 | 5.26 | 2.95 | 96 | 1011.0 |
| 20260507115530 | 17 | 325 | 3.2 | 17.7 | 0.33 | 5.23 | 2.92 | 96 | 1011.0 |
| 20260507115028 | 17 | 325 | 6.4 | 17.7 | 0.33 | 5.21 | 2.90 | 96 | 1011.2 |
| 20260507114536 | 17 | 333 | 4.8 | 9.7 | 0.33 | 5.18 | 2.87 | 96 | 1011.3 |
| 20260507114030 | 17 | 335 | 3.2 | 9.7 | 0.33 | 5.16 | 2.84 | 96 | 1010.8 |
| 20260507113527 | 17 | 45 | 3.2 | 11.3 | 0.33 | 5.13 | 2.82 | 96 | 1010.6 |
| 20260507113044 | 17 | 5 | 1.6 | 11.3 | 0.33 | 5.11 | 2.79 | 96 | 1010.5 |
| 20260507112530 | 17 | 57 | 4.8 | 12.9 | 0.33 | 5.08 | 2.77 | 95 | 1009.9 |
| 20260507112031 | 17 | 32 | 3.2 | 12.9 | 0.33 | 5.05 | 2.74 | 95 | 1009.9 |
| 20260507111544 | 17 | 42 | 1.6 | 14.5 | 0.33 | 5.03 | 2.72 | 95 | 1009.9 |
| 20260507111033 | 17 | 14 | 3.2 | 14.5 | 0.28 | 4.98 | 2.64 | 95 | 1009.9 |
| 20260507110531 | 17 | 41 | 3.2 | 14.5 | 0.28 | 4.95 | 2.64 | 95 | 1009.8 |
| 20260507110041 | 17 | 59 | 4.8 | 11.3 | 0.28 | 4.93 | 2.62 | 95 | 1009.7 |
| 20260507105529 | 17 | 333 | 3.2 | 16.1 | 0.28 | 4.90 | 2.59 | 95 | 1009.9 |
| 20260507105031 | 17 | 352 | 6.4 | 19.3 | 0.28 | 4.88 | 2.57 | 95 | 1009.9 |
| 20260507104540 | 17 | 328 | 9.7 | 19.3 | 0.28 | 4.85 | 2.54 | 95 | 1010.0 |
| 20260507104027 | 17 | 329 | 6.4 | 14.5 | 0.28 | 4.83 | 2.51 | 95 | 1009.8 |
| 20260507103532 | 17 | 337 | 1.6 | 8.0 | 0.28 | 4.80 | 2.49 | 95 | 1009.9 |
| 20260507103041 | 17 | 0 | 0.0 | 0.0 | 0.28 | 4.78 | 2.46 | 95 | 1009.7 |
| 20260507102530 | 17 | 0 | 0.0 | 0.0 | 0.28 | 4.75 | 2.44 | 95 | 1009.6 |
| 20260507102029 | 17 | 0 | 0.0 | 0.0 | 0.28 | 4.72 | 2.41 | 95 | 1009.6 |
| 20260507101548 | 17 | 0 | 0.0 | 0.0 | 0.28 | 4.70 | 2.39 | 95 | 1009.4 |
| 20260507101031 | 17 | 0 | 0.0 | 0.0 | 0.28 | 4.67 | 2.36 | 95 | 1009.4 |
| 20260507100530 | 17 | 0 | 0.0 | 0.0 | 0.30 | 4.67 | 2.36 | 95 | 1009.5 |
| 20260507100045 | 17 | 0 | 0.0 | 0.0 | 0.30 | 4.65 | 2.34 | 95 | 1009.3 |
| 20260507095530 | 17 | 0 | 0.0 | 0.0 | 0.30 | 4.62 | 2.31 | 95 | 1009.5 |
| 20260507095030 | 17 | 0 | 0.0 | 1.6 | 0.30 | 4.60 | 2.29 | 95 | 1009.4 |
| 20260507094546 | 17 | 0 | 0.0 | 4.8 | 0.33 | 4.57 | 2.26 | 95 | 1009.7 |
| 20260507094030 | 17 | 0 | 0.0 | 4.8 | 0.33 | 4.55 | 2.24 | 95 | 1009.6 |
| 20260507093530 | 17 | 0 | 0.0 | 0.0 | 0.33 | 4.52 | 2.21 | 95 | 1009.8 |
| 20260507093044 | 17 | 0 | 0.0 | 0.0 | 0.33 | 4.50 | 2.18 | 95 | 1009.9 |
| 20260507092531 | 17 | 0 | 0.0 | 0.0 | 0.33 | 4.47 | 2.16 | 95 | 1009.8 |
| 20260507092030 | 17 | 0 | 0.0 | 0.0 | 0.33 | 4.45 | 2.13 | 95 | 1010.0 |
| 20260507091545 | 17 | 0 | 0.0 | 0.0 | 0.33 | 4.42 | 2.11 | 95 | 1010.0 |
| 20260507091032 | 17 | 0 | 0.0 | 1.6 | 0.33 | 4.39 | 2.08 | 95 | 1010.1 |
| 20260507090534 | 17 | 0 | 0.0 | 1.6 | 0.36 | 4.37 | 2.06 | 95 | 1010.0 |
| 20260507090043 | 17 | 0 | 0.0 | 3.2 | 0.36 | 4.34 | 2.03 | 95 | 1010.2 |
| 20260507085533 | 17 | 0 | 0.0 | 3.2 | 0.36 | 4.32 | 2.01 | 95 | 1009.9 |
| 20260507085031 | 17 | 97 | 1.6 | 4.8 | 0.33 | 4.27 | 1.96 | 95 | 1009.7 |
| 20260507084545 | 17 | 97 | 1.6 | 4.8 | 0.36 | 4.24 | 1.93 | 95 | 1010.1 |
| 20260507084032 | 17 | 97 | 0.0 | 4.8 | 0.36 | 4.22 | 1.91 | 95 | 1010.5 |
| 20260507083532 | 17 | 0 | 0.0 | 1.6 | 0.36 | 4.19 | 1.88 | 95 | 1010.7 |
| 20260507083040 | 17 | 97 | 0.0 | 1.6 | 0.36 | 4.17 | 1.85 | 95 | 1010.8 |
| 20260507082532 | 17 | 0 | 0.0 | 0.0 | 0.36 | 4.14 | 1.83 | 95 | 1010.8 |
| 20260507082032 | 17 | 0 | 0.0 | 4.8 | 0.38 | 4.11 | 1.80 | 95 | 1010.8 |
| 20260507081541 | 17 | 0 | 0.0 | 4.8 | 0.38 | 4.09 | 1.78 | 95 | 1010.6 |
| 20260507081032 | 17 | 97 | 0.0 | 4.8 | 0.36 | 4.04 | 1.73 | 95 | 1010.4 |
| 20260507080531 | 17 | 0 | 0.0 | 3.2 | 0.36 | 4.01 | 1.70 | 95 | 1010.9 |
| 20260507080043 | 17 | 97 | 0.0 | 1.6 | 0.38 | 3.99 | 1.68 | 95 | 1010.7 |
| 20260507075532 | 17 | 0 | 0.0 | 1.6 | 0.38 | 3.96 | 1.65 | 95 | 1011.0 |
| 20260507075036 | 17 | 0 | 0.0 | 4.8 | 0.38 | 3.94 | 1.63 | 95 | 1010.9 |
| 20260507074543 | 17 | 0 | 0.0 | 6.4 | 0.36 | 3.89 | 1.57 | 95 | 1010.9 |
| 20260507074031 | 17 | 97 | 1.6 | 6.4 | 0.38 | 3.86 | 1.55 | 95 | 1010.8 |
| 20260507073532 | 17 | 73 | 0.0 | 4.8 | 0.38 | 3.84 | 1.52 | 95 | 1010.7 |
| 20260507073043 | 17 | 0 | 0.0 | 4.8 | 0.38 | 3.81 | 1.47 | 95 | 1011.0 |
| 20260507072535 | 17 | 273 | 1.6 | 6.4 | 0.38 | 3.76 | 1.45 | 95 | 1011.2 |
| 20260507072030 | 17 | 274 | 1.6 | 6.4 | 0.38 | 3.73 | 1.42 | 95 | 1011.5 |
| 20260507071542 | 17 | 40 | 0.0 | 8.0 | 0.41 | 3.71 | 1.40 | 95 | 1011.6 |
| 20260507071031 | 17 | 54 | 3.2 | 8.0 | 0.41 | 3.68 | 1.37 | 95 | 1011.5 |
| 20260507070533 | 17 | 61 | 3.2 | 8.0 | 0.41 | 3.66 | 1.32 | 95 | 1011.5 |
| 20260507070044 | 17 | 196 | 0.0 | 4.8 | 0.41 | 3.61 | 1.30 | 95 | 1011.6 |
| 20260507065531 | 17 | 196 | 0.0 | 4.8 | 0.41 | 3.58 | 1.27 | 95 | 1011.6 |
| 20260507065030 | 17 | 196 | 3.2 | 4.8 | 0.43 | 3.56 | 1.24 | 95 | 1011.3 |
| 20260507064541 | 17 | 0 | 0.0 | 4.8 | 0.43 | 3.53 | 1.22 | 95 | 1011.6 |
| 20260507064032 | 17 | 199 | 1.6 | 6.4 | 0.43 | 3.48 | 1.17 | 95 | 1011.8 |
| 20260507063531 | 17 | 0 | 0.0 | 6.4 | 0.43 | 3.45 | 1.14 | 95 | 1011.6 |
| 20260507063046 | 17 | 163 | 1.6 | 6.4 | 0.46 | 3.43 | 1.12 | 95 | 1011.6 |
| 20260507062530 | 17 | 0 | 1.6 | 8.0 | 0.43 | 3.38 | 1.07 | 95 | 1011.4 |
| 20260507062032 | 17 | 0 | 1.6 | 8.0 | 0.46 | 3.35 | 1.04 | 95 | 1011.6 |
| 20260507061546 | 17 | 46 | 3.2 | 8.0 | 0.43 | 3.30 | 0.99 | 94 | 1011.8 |
| 20260507061029 | 17 | 91 | 0.0 | 3.2 | 0.46 | 3.28 | 0.97 | 94 | 1011.9 |
| 20260507060531 | 17 | 0 | 0.0 | 4.8 | 0.43 | 3.23 | 0.91 | 95 | 1012.1 |
| 20260507060051 | 17 | 92 | 0.0 | 4.8 | 0.46 | 3.20 | 0.89 | 94 | 1012.1 |
| 20260507055534 | 17 | 92 | 1.6 | 4.8 | 0.48 | 3.17 | 0.86 | 95 | 1012.3 |
| 20260507055029 | 17 | 92 | 0.0 | 3.2 | 0.46 | 3.12 | 0.81 | 95 | 1012.4 |
| 20260507054547 | 17 | 92 | 0.0 | 4.8 | 0.48 | 3.10 | 0.79 | 94 | 1012.3 |
| 20260507054032 | 17 | 0 | 0.0 | 6.4 | 0.46 | 3.05 | 0.74 | 94 | 1012.4 |
| 20260507053530 | 17 | 0 | 0.0 | 9.7 | 0.48 | 3.02 | 0.71 | 94 | 1012.4 |
| 20260507053047 | 17 | 123 | 3.2 | 9.7 | 0.46 | 2.95 | 0.66 | 94 | 1012.1 |
| 20260507052530 | 17 | 128 | 1.6 | 6.4 | 0.48 | 2.95 | 0.64 | 94 | 1012.3 |
| 20260507052031 | 17 | 0 | 1.6 | 4.8 | 0.46 | 2.90 | 0.58 | 94 | 1012.7 |
| 20260507051549 | 17 | 0 | 0.0 | 4.8 | 0.43 | 2.84 | 0.53 | 94 | 1012.8 |
| 20260507051034 | 17 | 122 | 1.6 | 3.2 | 0.46 | 2.82 | 0.51 | 94 | 1012.7 |
| 20260507050531 | 17 | 122 | 0.0 | 3.2 | 0.43 | 2.77 | 0.46 | 94 | 1012.9 |
| 20260507050051 | 17 | 0 | 0.0 | 1.6 | 0.43 | 2.74 | 0.43 | 94 | 1013.1 |
| 20260507045530 | 17 | 122 | 0.0 | 4.8 | 0.41 | 2.67 | 0.38 | 94 | 1013.1 |
| 20260507045030 | 17 | 0 | 0.0 | 6.4 | 0.41 | 2.64 | 0.36 | 94 | 1013.0 |
| 20260507044552 | 17 | 130 | 3.2 | 6.4 | 0.38 | 2.62 | 0.30 | 94 | 1013.0 |
| 20260507044030 | 17 | 0 | 0.0 | 3.2 | 0.41 | 2.59 | 0.28 | 94 | 1013.5 |
| 20260507043530 | 17 | 0 | 0.0 | 4.8 | 0.38 | 2.54 | 0.23 | 94 | 1013.5 |
| 20260507043041 | 17 | 0 | 0.0 | 8.0 | 0.38 | 2.51 | 0.20 | 94 | 1013.3 |
| 20260507042530 | 17 | 129 | 3.2 | 8.0 | 0.36 | 2.46 | 0.15 | 94 | 1013.1 |
| 20260507042029 | 17 | 0 | 0.0 | 4.8 | 0.36 | 2.44 | 0.13 | 94 | 1013.0 |
| 20260507041541 | 17 | 127 | 0.0 | 6.4 | 0.36 | 2.41 | 0.10 | 94 | 1013.1 |
| 20260507041030 | 17 | 0 | 1.6 | 8.0 | 0.36 | 2.36 | 0.05 | 94 | 1013.1 |
| 20260507040531 | 17 | 0 | 3.2 | 11.3 | 0.36 | 2.34 | 0.03 | 94 | 1013.1 |
| 20260507040043 | 17 | 190 | 3.2 | 12.9 | 0.36 | 2.31 | 0.00 | 93 | 1013.2 |
| 20260507035527 | 17 | 124 | 3.2 | 12.9 | 0.36 | 2.29 | 2.29 | 94 | 1013.0 |
| 20260507035030 | 17 | 140 | 3.2 | 12.9 | 0.38 | 2.26 | 2.26 | 93 | 1013.3 |
| 20260507034544 | 17 | 148 | 4.8 | 12.9 | 0.36 | 2.21 | 2.21 | 93 | 1012.9 |
| 20260507034031 | 17 | 132 | 4.8 | 9.7 | 0.36 | 2.18 | 2.18 | 93 | 1012.8 |
| 20260507033530 | 17 | 123 | 1.6 | 9.7 | 0.36 | 2.16 | 2.16 | 94 | 1012.7 |
| 20260507033044 | 17 | 120 | 1.6 | 9.7 | 0.36 | 2.13 | 2.13 | 93 | 1012.3 |
| 20260507032529 | 17 | 103 | 3.2 | 9.7 | 0.38 | 2.11 | 2.11 | 93 | 1012.5 |
| 20260507032033 | 17 | 96 | 1.6 | 6.4 | 0.38 | 2.08 | 2.08 | 93 | 1012.7 |
| 20260507031541 | 17 | 96 | 3.2 | 6.4 | 0.36 | 2.03 | 2.03 | 93 | 1012.9 |
| 20260507031030 | 17 | 78 | 1.6 | 4.8 | 0.36 | 2.01 | 2.01 | 93 | 1013.4 |
| 20260507030538 | 17 | 352 | 1.6 | 4.8 | 0.33 | 1.98 | 1.98 | 93 | 1013.4 |
| 20260507030042 | 17 | 0 | 0.0 | 4.8 | 0.33 | 1.96 | 1.96 | 93 | 1013.8 |
| 20260507025530 | 17 | 329 | 0.0 | 4.8 | 0.30 | 1.91 | 1.91 | 93 | 1013.7 |
| 20260507025030 | 17 | 327 | 0.0 | 4.8 | 0.30 | 1.88 | 1.88 | 93 | 1013.7 |
| 20260507024543 | 17 | 321 | 1.6 | 6.4 | 0.30 | 1.85 | 1.85 | 93 | 1013.7 |
| 20260507024036 | 17 | 322 | 3.2 | 8.0 | 0.30 | 1.83 | 1.83 | 93 | 1013.9 |
| 20260507023532 | 17 | 9 | 3.2 | 8.0 | 0.30 | 1.80 | 1.80 | 92 | 1013.8 |
| 20260507023045 | 17 | 37 | 0.0 | 8.0 | 0.28 | 1.75 | 1.75 | 92 | 1013.6 |
| 20260507022534 | 17 | 24 | 3.2 | 6.4 | 0.28 | 1.73 | 1.73 | 92 | 1013.6 |
| 20260507022032 | 17 | 348 | 1.6 | 6.4 | 0.28 | 1.70 | 1.70 | 92 | 1013.7 |
| 20260507021540 | 18 | 259 | 0.0 | 12.9 | 0.28 | 1.68 | 1.68 | 92 | 1013.4 |
| 20260507021032 | 18 | 0 | 0.0 | 12.9 | 0.28 | 1.65 | 1.65 | 92 | 1012.9 |
| 20260507020531 | 18 | 337 | 3.2 | 16.1 | 0.30 | 1.63 | 1.63 | 92 | 1012.8 |
| 20260507020047 | 18 | 26 | 6.4 | 16.1 | 0.33 | 1.63 | 1.63 | 92 | 1012.7 |
| 20260507015534 | 18 | 27 | 6.4 | 12.9 | 0.33 | 1.60 | 1.60 | 92 | 1012.9 |
| 20260507015032 | 18 | 30 | 3.2 | 14.5 | 0.33 | 1.57 | 1.57 | 91 | 1013.0 |
| 20260507014538 | 18 | 34 | 3.2 | 14.5 | 0.36 | 1.55 | 1.55 | 91 | 1012.9 |
| 20260507014032 | 18 | 36 | 8.0 | 24.1 | 0.36 | 1.52 | 1.52 | 91 | 1012.9 |
| 20260507013536 | 19 | 335 | 3.2 | 24.1 | 0.36 | 1.47 | 1.47 | 92 | 1012.9 |
| 20260507013057 | 19 | 43 | 6.4 | 22.5 | 0.38 | 1.47 | 1.47 | 91 | 1012.3 |
| 20260507012533 | 20 | 31 | 8.0 | 24.1 | 0.38 | 1.45 | 1.45 | 90 | 1013.0 |
| 20260507012032 | 20 | 311 | 12.9 | 24.1 | 0.41 | 1.42 | 1.42 | 90 | 1013.4 |
| 20260507011543 | 21 | 330 | 6.4 | 12.9 | 0.41 | 1.40 | 1.40 | 92 | 1013.3 |
| 20260507011031 | 21 | 0 | 0.0 | 0.0 | 0.41 | 1.32 | 1.32 | 92 | 1013.0 |
| 20260507010533 | 21 | 0 | 0.0 | 0.0 | 0.43 | 1.32 | 1.32 | 92 | 1012.8 |
| 20260507010045 | 21 | 0 | 0.0 | 0.0 | 0.46 | 1.30 | 1.30 | 92 | 1012.6 |
| 20260507005533 | 21 | 0 | 0.0 | 0.0 | 0.48 | 1.27 | 1.27 | 92 | 1012.8 |
| 20260507005030 | 21 | 0 | 0.0 | 0.0 | 0.51 | 1.24 | 1.24 | 92 | 1012.7 |
| 20260507004549 | 21 | 0 | 0.0 | 0.0 | 0.51 | 1.19 | 1.19 | 91 | 1012.6 |
| 20260507004031 | 21 | 0 | 0.0 | 0.0 | 0.53 | 1.17 | 1.17 | 91 | 1012.5 |
| 20260507003531 | 21 | 0 | 0.0 | 0.0 | 0.58 | 1.14 | 1.14 | 91 | 1012.3 |
| 20260507003038 | 21 | 0 | 0.0 | 0.0 | 0.58 | 1.09 | 1.09 | 91 | 1012.3 |
| 20260507002531 | 21 | 0 | 0.0 | 0.0 | 0.64 | 1.07 | 1.07 | 91 | 1012.2 |
| 20260507002029 | 21 | 0 | 0.0 | 0.0 | 0.66 | 1.02 | 1.02 | 91 | 1012.2 |
| 20260507001544 | 21 | 0 | 0.0 | 0.0 | 0.69 | 0.97 | 0.97 | 91 | 1012.2 |
| 20260507001029 | 21 | 0 | 0.0 | 0.0 | 0.74 | 0.94 | 0.94 | 90 | 1012.8 |
| 20260507000530 | 21 | 0 | 0.0 | 0.0 | 0.79 | 0.89 | 0.89 | 90 | 1012.5 |
| 20260507000051 | 21 | 0 | 0.0 | 3.2 | 0.79 | 0.84 | 0.84 | 90 | 1012.4 |
| 20260506235531 | 21 | 0 | 0.0 | 4.8 | 0.79 | 0.79 | 0.79 | 90 | 1012.4 |
| 20260506235030 | 21 | 220 | 0.0 | 9.7 | 0.74 | 0.74 | 0.74 | 90 | 1012.5 |
| 20260506234542 | 21 | 220 | 3.2 | 11.3 | 0.69 | 0.69 | 0.69 | 89 | 1012.6 |
| 20260506234030 | 21 | 200 | 4.8 | 12.9 | 0.61 | 0.61 | 0.61 | 89 | 1012.3 |
| 20260506233529 | 21 | 220 | 6.4 | 12.9 | 0.56 | 0.56 | 0.56 | 89 | 1012.4 |
| 20260506233039 | 21 | 200 | 4.8 | 12.9 | 0.48 | 0.48 | 0.48 | 88 | 1012.3 |
| 20260506232528 | 21 | 208 | 3.2 | 11.3 | 0.41 | 0.41 | 0.41 | 87 | 1012.3 |
| 20260506232028 | 21 | 234 | 6.4 | 25.7 | 0.36 | 0.36 | 0.36 | 86 | 1012.6 |
| 20260506231540 | 21 | 269 | 4.8 | 33.8 | 0.25 | 0.25 | 0.25 | 85 | 1012.5 |
| 20260506231027 | 22 | 254 | 14.5 | 33.8 | 0.18 | 0.18 | 0.18 | 83 | 1012.5 |
| 20260506230527 | 23 | 204 | 11.3 | 33.8 | 0.10 | 0.10 | 0.10 | 81 | 1013.3 |
| 20260506230039 | 24 | 218 | 4.8 | 14.5 | 0.05 | 0.05 | 0.05 | 77 | 1012.3 |
| 20260506225529 | 24 | 213 | 4.8 | 14.5 | 0.00 | 0.00 | 0.00 | 75 | 1011.6 |
| 20260506225029 | 25 | 224 | 4.8 | 9.7 | 0.00 | 0.00 | 0.00 | 73 | 1011.6 |
| 20260506224556 | 25 | 207 | 4.8 | 9.7 | 0.00 | 0.00 | 0.00 | 73 | 1011.5 |
| 20260506224028 | 25 | 223 | 3.2 | 14.5 | 0.00 | 0.00 | 0.00 | 73 | 1011.5 |
| 20260506223529 | 25 | 0 | 3.2 | 14.5 | 0.00 | 0.00 | 0.00 | 72 | 1011.5 |
| 20260506223041 | 25 | 207 | 3.2 | 11.3 | 0.00 | 0.00 | 0.00 | 72 | 1011.9 |
| 20260506222533 | 25 | 211 | 4.8 | 11.3 | 0.00 | 0.00 | 0.00 | 72 | 1012.1 |
| 20260506222029 | 25 | 221 | 1.6 | 14.5 | 0.00 | 0.00 | 0.00 | 71 | 1012.2 |
| 20260506221538 | 25 | 225 | 4.8 | 14.5 | 0.00 | 0.00 | 0.00 | 71 | 1012.3 |
| 20260506221029 | 25 | 225 | 3.2 | 14.5 | 0.00 | 0.00 | 0.00 | 70 | 1012.1 |
| 20260506220529 | 25 | 238 | 4.8 | 14.5 | 0.00 | 0.00 | 0.00 | 70 | 1012.0 |
| 20260506220044 | 25 | 194 | 6.4 | 14.5 | 0.00 | 0.00 | 0.00 | 70 | 1012.1 |
| 20260506215529 | 25 | 233 | 4.8 | 16.1 | 0.00 | 0.00 | 0.00 | 69 | 1012.1 |
| 20260506215029 | 25 | 207 | 8.0 | 16.1 | 0.00 | 0.00 | 0.00 | 69 | 1012.1 |
| 20260506214542 | 25 | 219 | 6.4 | 24.1 | 0.00 | 0.00 | 0.00 | 69 | 1012.1 |
| 20260506214028 | 25 | 232 | 8.0 | 24.1 | 0.00 | 0.00 | 0.00 | 68 | 1012.0 |
| 20260506213534 | 25 | 223 | 12.9 | 24.1 | 0.00 | 0.00 | 0.00 | 68 | 1012.0 |
| 20260506213044 | 25 | 192 | 11.3 | 25.7 | 0.00 | 0.00 | 0.00 | 68 | 1012.0 |
| 20260506212534 | 25 | 209 | 9.7 | 25.7 | 0.00 | 0.00 | 0.00 | 68 | 1011.9 |
| 20260506212033 | 26 | 218 | 9.7 | 20.9 | 0.00 | 0.00 | 0.00 | 68 | 1011.9 |
| 20260506211540 | 26 | 210 | 4.8 | 22.5 | 0.00 | 0.00 | 0.00 | 68 | 1011.8 |
| 20260506211032 | 26 | 224 | 8.0 | 22.5 | 0.00 | 0.00 | 0.00 | 68 | 1011.7 |
| 20260506210530 | 25 | 199 | 11.3 | 22.5 | 0.00 | 0.00 | 0.00 | 68 | 1011.8 |
| 20260506210041 | 25 | 187 | 6.4 | 19.3 | 0.00 | 0.00 | 0.00 | 68 | 1012.1 |
| 20260506205532 | 25 | 227 | 8.0 | 19.3 | 0.00 | 0.00 | 0.00 | 67 | 1012.1 |
| 20260506205032 | 26 | 185 | 6.4 | 16.1 | 0.00 | 0.00 | 0.00 | 67 | 1012.1 |
| 20260506204539 | 26 | 193 | 3.2 | 19.3 | 0.00 | 0.00 | 0.00 | 67 | 1012.2 |
| 20260506204032 | 26 | 204 | 9.7 | 20.9 | 0.00 | 0.00 | 0.00 | 66 | 1012.2 |
| 20260506203531 | 26 | 260 | 11.3 | 24.1 | 0.00 | 0.00 | 0.00 | 65 | 1012.3 |
| 20260506203047 | 26 | 193 | 12.9 | 27.4 | 0.00 | 0.00 | 0.00 | 65 | 1012.4 |
| 20260506202534 | 26 | 221 | 14.5 | 27.4 | 0.00 | 0.00 | 0.00 | 64 | 1012.6 |
| 20260506202033 | 26 | 205 | 11.3 | 27.4 | 0.00 | 0.00 | 0.00 | 64 | 1012.7 |
| 20260506201542 | 26 | 205 | 11.3 | 27.4 | 0.00 | 0.00 | 0.00 | 64 | 1012.7 |
| 20260506201034 | 26 | 198 | 6.4 | 19.3 | 0.00 | 0.00 | 0.00 | 64 | 1012.7 |
| 20260506200531 | 27 | 192 | 9.7 | 22.5 | 0.00 | 0.00 | 0.00 | 64 | 1012.6 |
| 20260506200041 | 26 | 234 | 8.0 | 22.5 | 0.00 | 0.00 | 0.00 | 64 | 1012.8 |
| 20260506195532 | 26 | 199 | 8.0 | 22.5 | 0.00 | 0.00 | 0.00 | 64 | 1012.7 |
| 20260506195031 | 26 | 200 | 11.3 | 20.9 | 0.00 | 0.00 | 0.00 | 64 | 1012.9 |
| 20260506194555 | 26 | 223 | 8.0 | 20.9 | 0.00 | 0.00 | 0.00 | 64 | 1012.9 |
| 20260506194035 | 26 | 150 | 6.4 | 25.7 | 0.00 | 0.00 | 0.00 | 65 | 1013.0 |
| 20260506193536 | 26 | 190 | 11.3 | 25.7 | 0.00 | 0.00 | 0.00 | 64 | 1013.0 |
| 20260506193037 | 26 | 206 | 8.0 | 19.3 | 0.00 | 0.00 | 0.00 | 65 | 1013.1 |
| 20260506192532 | 26 | 235 | 6.4 | 17.7 | 0.00 | 0.00 | 0.00 | 65 | 1013.2 |
| 20260506192032 | 26 | 213 | 9.7 | 19.3 | 0.00 | 0.00 | 0.00 | 65 | 1013.3 |
| 20260506191545 | 26 | 209 | 8.0 | 22.5 | 0.00 | 0.00 | 0.00 | 65 | 1013.3 |
| 20260506191033 | 26 | 214 | 9.7 | 22.5 | 0.00 | 0.00 | 0.00 | 66 | 1013.4 |
| 20260506190535 | 25 | 202 | 6.4 | 16.1 | 0.00 | 0.00 | 0.00 | 67 | 1013.6 |
| 20260506190044 | 25 | 209 | 6.4 | 12.9 | 0.00 | 0.00 | 0.00 | 67 | 1013.8 |
| 20260506185531 | 25 | 202 | 6.4 | 17.7 | 0.00 | 0.00 | 0.00 | 67 | 1013.8 |
| 20260506185030 | 25 | 205 | 6.4 | 22.5 | 0.00 | 0.00 | 0.00 | 66 | 1013.8 |
| 20260506184539 | 26 | 205 | 11.3 | 22.5 | 0.00 | 0.00 | 0.00 | 65 | 1014.0 |
| 20260506184032 | 26 | 212 | 8.0 | 22.5 | 0.00 | 0.00 | 0.00 | 65 | 1014.0 |
| 20260506183532 | 26 | 177 | 9.7 | 17.7 | 0.00 | 0.00 | 0.00 | 66 | 1014.1 |
| 20260506183038 | 26 | 229 | 3.2 | 17.7 | 0.00 | 0.00 | 0.00 | 66 | 1014.2 |
| 20260506182531 | 26 | 242 | 6.4 | 17.7 | 0.00 | 0.00 | 0.00 | 65 | 1014.1 |
| 20260506182034 | 26 | 195 | 8.0 | 16.1 | 0.00 | 0.00 | 0.00 | 65 | 1014.3 |
| 20260506181546 | 26 | 178 | 8.0 | 16.1 | 0.00 | 0.00 | 0.00 | 64 | 1014.3 |
| 20260506181031 | 26 | 221 | 9.7 | 17.7 | 0.00 | 0.00 | 0.00 | 64 | 1014.3 |
| 20260506180532 | 26 | 219 | 11.3 | 20.9 | 0.00 | 0.00 | 0.00 | 64 | 1014.3 |
| 20260506180050 | 26 | 237 | 11.3 | 24.1 | 0.00 | 0.00 | 0.00 | 63 | 1014.3 |
| 20260506175536 | 26 | 219 | 11.3 | 22.5 | 0.00 | 0.00 | 0.00 | 64 | 1014.2 |
| 20260506175030 | 26 | 210 | 8.0 | 22.5 | 0.00 | 0.00 | 0.00 | 65 | 1014.1 |
| 20260506174540 | 26 | 186 | 11.3 | 29.0 | 0.00 | 0.00 | 0.00 | 65 | 1014.0 |
| 20260506174032 | 26 | 247 | 11.3 | 29.0 | 0.00 | 0.00 | 0.00 | 65 | 1014.0 |
| 20260506173531 | 26 | 215 | 11.3 | 20.9 | 0.00 | 0.00 | 0.00 | 65 | 1014.1 |
| 20260506173048 | 26 | 214 | 3.2 | 16.1 | 0.00 | 0.00 | 0.00 | 66 | 1014.0 |
| 20260506172531 | 26 | 191 | 9.7 | 16.1 | 0.00 | 0.00 | 0.00 | 65 | 1014.0 |
| 20260506172030 | 26 | 197 | 6.4 | 20.9 | 0.00 | 0.00 | 0.00 | 66 | 1014.0 |
| 20260506171552 | 26 | 211 | 9.7 | 25.7 | 0.00 | 0.00 | 0.00 | 65 | 1014.0 |
| 20260506171035 | 26 | 217 | 12.9 | 25.7 | 0.00 | 0.00 | 0.00 | 65 | 1013.9 |
| 20260506170533 | 26 | 233 | 6.4 | 19.3 | 0.00 | 0.00 | 0.00 | 66 | 1014.0 |
| 20260506170040 | 26 | 207 | 6.4 | 19.3 | 0.00 | 0.00 | 0.00 | 66 | 1014.0 |
| 20260506165534 | 26 | 191 | 4.8 | 19.3 | 0.00 | 0.00 | 0.00 | 67 | 1014.1 |
| 20260506165035 | 25 | 213 | 6.4 | 25.7 | 0.00 | 0.00 | 0.00 | 67 | 1014.1 |
| 20260506164541 | 25 | 226 | 9.7 | 25.7 | 0.00 | 0.00 | 0.00 | 67 | 1014.1 |
| 20260506164034 | 25 | 193 | 12.9 | 25.7 | 0.00 | 0.00 | 0.00 | 67 | 1014.2 |
| 20260506163529 | 25 | 186 | 9.7 | 24.1 | 0.00 | 0.00 | 0.00 | 68 | 1014.2 |
| 20260506163049 | 25 | 213 | 12.9 | 24.1 | 0.00 | 0.00 | 0.00 | 69 | 1014.2 |
| 20260506162532 | 24 | 203 | 8.0 | 20.9 | 0.00 | 0.00 | 0.00 | 71 | 1014.2 |
| 20260506162033 | 23 | 131 | 6.4 | 16.1 | 0.00 | 0.00 | 0.00 | 72 | 1014.1 |
| 20260506161540 | 23 | 199 | 6.4 | 14.5 | 0.00 | 0.00 | 0.00 | 74 | 1014.3 |
| 20260506161031 | 23 | 189 | 6.4 | 17.7 | 0.00 | 0.00 | 0.00 | 75 | 1014.6 |
| 20260506160531 | 22 | 231 | 8.0 | 17.7 | 0.00 | 0.00 | 0.00 | 75 | 1014.7 |
| 20260506160044 | 22 | 215 | 8.0 | 17.7 | 0.00 | 0.00 | 0.00 | 76 | 1014.7 |
| 20260506155531 | 22 | 216 | 9.7 | 17.7 | 0.00 | 0.00 | 0.00 | 77 | 1014.9 |
| 20260506155031 | 21 | 205 | 6.4 | 14.5 | 0.00 | 0.00 | 0.00 | 77 | 1015.1 |
| 20260506154542 | 21 | 226 | 4.8 | 12.9 | 0.00 | 0.00 | 0.00 | 78 | 1015.1 |
| 20260506154032 | 21 | 219 | 4.8 | 14.5 | 0.00 | 0.00 | 0.00 | 79 | 1015.1 |
| 20260506153531 | 21 | 243 | 6.4 | 14.5 | 0.00 | 0.00 | 0.00 | 79 | 1015.1 |
| 20260506153043 | 21 | 244 | 6.4 | 14.5 | 0.00 | 0.00 | 0.00 | 81 | 1015.1 |
| 20260506152532 | 20 | 202 | 3.2 | 9.7 | 0.00 | 0.00 | 0.00 | 81 | 1015.3 |
| 20260506152031 | 20 | 205 | 3.2 | 12.9 | 0.00 | 0.00 | 0.00 | 81 | 1015.4 |
| 20260506151551 | 20 | 205 | 3.2 | 16.1 | 0.00 | 0.00 | 0.00 | 82 | 1015.7 |
| 20260506151032 | 20 | 255 | 6.4 | 16.1 | 0.00 | 0.00 | 0.00 | 81 | 1015.8 |
| 20260506150532 | 20 | 214 | 4.8 | 11.3 | 0.00 | 0.00 | 0.00 | 81 | 1015.3 |
| 20260506150042 | 20 | 207 | 6.4 | 14.5 | 0.00 | 0.00 | 0.00 | 81 | 1015.2 |
| 20260506145533 | 20 | 221 | 6.4 | 17.7 | 0.00 | 0.00 | 0.00 | 81 | 1015.5 |
| 20260506145032 | 20 | 192 | 6.4 | 17.7 | 0.00 | 0.00 | 0.00 | 80 | 1015.6 |
| 20260506144559 | 20 | 220 | 8.0 | 14.5 | 0.00 | 0.00 | 0.00 | 79 | 1015.6 |
| 20260506144033 | 20 | 234 | 6.4 | 14.5 | 0.00 | 0.00 | 0.00 | 79 | 1015.5 |
| 20260506143533 | 20 | 227 | 4.8 | 16.1 | 0.00 | 0.00 | 0.00 | 78 | 1015.3 |
| 20260506143038 | 20 | 236 | 6.4 | 16.1 | 0.00 | 0.00 | 0.00 | 77 | 1015.4 |
| 20260506142531 | 20 | 208 | 4.8 | 22.5 | 0.00 | 0.00 | 0.00 | 77 | 1015.3 |
| 20260506142030 | 20 | 238 | 9.7 | 22.5 | 0.00 | 0.00 | 0.00 | 77 | 1015.3 |
| 20260506141541 | 20 | 250 | 4.8 | 20.9 | 0.00 | 0.00 | 0.00 | 77 | 1015.3 |
| 20260506141034 | 20 | 227 | 8.0 | 20.9 | 0.00 | 0.00 | 0.00 | 77 | 1015.2 |